Airfield :
LOGIN :

Register | Disclaimer

   EN    FR    IT 

 










Legend :    VFR   Marginal VFR   IFR   Intensive IFR   Very Intensive IFR
Visi :
Ceiling :
>= 8 km
>= 3000ft
5 to 8 km
1000 to 3000 ft
1500m to 5 km
500 to 1000 ft
800 to 1500m
200 to 500 ft
< 800m
< 200 ft
Symbols :   Thunderstorms  Fog  Heavy snow  Heavy precipitations  Wind > 20 kt
SIGMETs :     Misc.  Thunderstorms  Icing  Turbulence  Mountain Waves  Volcanic Ashes






- Airport Elevation : 235 ft
- IATA code : BZG


EPBY - Bydgoszcz

CURRENT METAR :
  • 180030Z 09010KT 3200 BR BKN004 OVC006 07/07 Q1012

EXPIRED METARs :
  • 180000Z 09011KT 3400 BR BKN004 07/07 Q1012
  • 172330Z 09010KT 3100 BR OVC005 07/07 Q1012
  • 172300Z 09011KT 3300 BR OVC005 07/07 Q1012
  • 172230Z 09009KT 3600 BR SCT005 BKN007 07/07 Q1013
  • 172200Z 10011KT 3800 BR FEW005 BKN007 07/07 Q1013

TAF TAF EPBY
Valid from the 18 at 00:00 until the 19 at 00:00 UTC


172330Z 1800/1824 10010KT 3000 BR BKN005
TEMPO 1800/1808 1500 BR BKN002
PROB40 1802/1806 0800 FG OVC001
BECMG 1808/1811 BKN012
BECMG 1811/1814 BKN040
BECMG 1817/1820 17008KT BKN012
PROB40
TEMPO 1819/1824 4000 -RA BR BKN007



MET'MAP, your aeronautical weather chart ! - Copyright ORBIFLY December 2007 - Disclaimer

ORBIFLY MET'MAP TEAM :

Programming & Development : Alexandra Zaïnal
Concept & Development : Baudouin d'Aumeries
Co-Development & Prog : Marc-Olivier Méhu
Technical & hardware support : Manuel Goepfert

Contact : metmap@orbifly.com




SOURCES & CREDITS :

   NOAA